KMRJ

Iowa County Airport

Mineral Point, Wisconsin, USA
METAR KMRJ 162355Z AUTO 07007KT 10SM CLR 00/00 A2997 RMK AO2
Observed Flight Rules
Dec-16 @ 23:55 UTC (36 minutes ago) Visual Flight Rules
Wind Visibility Clouds
70° at 7 knots 10 miles
  • Clear skies
Temperatures Readings
Current 0°C / 32°F
Dewpoint 0°C / 32°F
Humidity 100%
Altimeter 29.97" Hg
Pressure 1015 hPa
Elevation 359
METAR KMRJ 162355Z AUTO 07007KT 10SM CLR 00/00 A2997 RMK AO2
Observed Flight Rules
Dec-16 @ 23:55 UTC
(36 minutes ago)
VFR
Wind Visibility
70° at 7 knots 10 miles
Clouds
  • Clear skies
Temperature Dewpoint
0°C / 32°F 0°C / 32°F
Humidity Altimeter Pressure
100% 29.97" Hg 1015 hPa